sensor_id;sensor_type;location;lat;lon;timestamp;P1;durP1;ratioP1;P2;durP2;ratioP2
48040;SDS011;33815;48.386;11.738;2022-07-22T00:00:38;21.00;;;18.53;;
48040;SDS011;33815;48.386;11.738;2022-07-22T00:03:03;20.83;;;18.73;;
48040;SDS011;33815;48.386;11.738;2022-07-22T00:05:29;19.33;;;17.40;;
48040;SDS011;33815;48.386;11.738;2022-07-22T00:07:54;22.15;;;18.13;;
48040;SDS011;33815;48.386;11.738;2022-07-22T00:10:19;22.23;;;19.90;;
48040;SDS011;33815;48.386;11.738;2022-07-22T00:12:45;20.67;;;18.60;;
48040;SDS011;33815;48.386;11.738;2022-07-22T00:15:10;22.95;;;19.30;;
48040;SDS011;33815;48.386;11.738;2022-07-22T00:17:36;21.77;;;18.63;;
48040;SDS011;33815;48.386;11.738;2022-07-22T00:20:02;23.48;;;19.42;;
48040;SDS011;33815;48.386;11.738;2022-07-22T00:22:28;22.40;;;19.40;;
48040;SDS011;33815;48.386;11.738;2022-07-22T00:24:53;21.27;;;19.07;;
48040;SDS011;33815;48.386;11.738;2022-07-22T00:27:18;20.13;;;18.10;;
48040;SDS011;33815;48.386;11.738;2022-07-22T00:29:44;21.37;;;18.23;;
48040;SDS011;33815;48.386;11.738;2022-07-22T00:32:09;22.50;;;20.23;;
48040;SDS011;33815;48.386;11.738;2022-07-22T00:34:34;20.80;;;18.57;;
48040;SDS011;33815;48.386;11.738;2022-07-22T00:36:59;20.17;;;18.07;;
48040;SDS011;33815;48.386;11.738;2022-07-22T00:39:25;24.23;;;21.50;;
48040;SDS011;33815;48.386;11.738;2022-07-22T00:41:50;23.77;;;19.67;;
48040;SDS011;33815;48.386;11.738;2022-07-22T00:44:15;22.55;;;20.10;;
48040;SDS011;33815;48.386;11.738;2022-07-22T00:46:41;25.52;;;21.63;;
48040;SDS011;33815;48.386;11.738;2022-07-22T00:49:07;25.30;;;22.02;;
48040;SDS011;33815;48.386;11.738;2022-07-22T00:51:34;25.13;;;21.50;;
48040;SDS011;33815;48.386;11.738;2022-07-22T00:54:01;22.65;;;20.27;;
48040;SDS011;33815;48.386;11.738;2022-07-22T00:56:28;29.00;;;22.73;;
48040;SDS011;33815;48.386;11.738;2022-07-22T00:58:55;24.23;;;21.80;;
48040;SDS011;33815;48.386;11.738;2022-07-22T01:01:24;24.85;;;21.30;;
48040;SDS011;33815;48.386;11.738;2022-07-22T01:03:49;26.48;;;21.58;;
48040;SDS011;33815;48.386;11.738;2022-07-22T01:06:15;23.02;;;20.42;;
48040;SDS011;33815;48.386;11.738;2022-07-22T01:08:40;25.30;;;22.67;;
48040;SDS011;33815;48.386;11.738;2022-07-22T01:11:06;25.63;;;22.05;;
48040;SDS011;33815;48.386;11.738;2022-07-22T01:13:33;23.23;;;20.80;;
48040;SDS011;33815;48.386;11.738;2022-07-22T01:15:58;31.42;;;23.55;;
48040;SDS011;33815;48.386;11.738;2022-07-22T01:18:23;24.93;;;21.73;;
48040;SDS011;33815;48.386;11.738;2022-07-22T01:20:49;23.90;;;21.33;;
48040;SDS011;33815;48.386;11.738;2022-07-22T01:23:14;24.45;;;21.75;;
48040;SDS011;33815;48.386;11.738;2022-07-22T01:25:39;27.33;;;24.13;;
48040;SDS011;33815;48.386;11.738;2022-07-22T01:28:04;26.37;;;23.13;;
48040;SDS011;33815;48.386;11.738;2022-07-22T01:30:30;25.42;;;22.38;;
48040;SDS011;33815;48.386;11.738;2022-07-22T01:32:55;23.05;;;19.75;;
48040;SDS011;33815;48.386;11.738;2022-07-22T01:35:20;22.77;;;20.33;;
48040;SDS011;33815;48.386;11.738;2022-07-22T01:37:46;25.25;;;20.58;;
48040;SDS011;33815;48.386;11.738;2022-07-22T01:40:11;21.70;;;19.38;;
48040;SDS011;33815;48.386;11.738;2022-07-22T01:42:36;21.83;;;19.42;;
48040;SDS011;33815;48.386;11.738;2022-07-22T01:45:02;23.73;;;20.98;;
48040;SDS011;33815;48.386;11.738;2022-07-22T01:47:28;24.08;;;21.33;;
48040;SDS011;33815;48.386;11.738;2022-07-22T01:49:53;26.30;;;22.77;;
48040;SDS011;33815;48.386;11.738;2022-07-22T01:52:18;23.60;;;21.10;;
48040;SDS011;33815;48.386;11.738;2022-07-22T01:54:44;24.10;;;20.77;;
48040;SDS011;33815;48.386;11.738;2022-07-22T01:57:09;27.60;;;23.00;;
48040;SDS011;33815;48.386;11.738;2022-07-22T01:59:34;26.90;;;22.97;;
48040;SDS011;33815;48.386;11.738;2022-07-22T02:01:59;24.87;;;21.97;;
48040;SDS011;33815;48.386;11.738;2022-07-22T02:04:25;24.93;;;20.70;;
48040;SDS011;33815;48.386;11.738;2022-07-22T02:06:50;24.35;;;21.77;;
48040;SDS011;33815;48.386;11.738;2022-07-22T02:09:15;25.87;;;23.10;;
48040;SDS011;33815;48.386;11.738;2022-07-22T02:11:41;24.27;;;21.50;;
48040;SDS011;33815;48.386;11.738;2022-07-22T02:14:07;23.40;;;20.88;;
48040;SDS011;33815;48.386;11.738;2022-07-22T02:16:32;32.20;;;25.85;;
48040;SDS011;33815;48.386;11.738;2022-07-22T02:18:57;27.08;;;23.65;;
48040;SDS011;33815;48.386;11.738;2022-07-22T02:21:23;29.20;;;23.57;;
48040;SDS011;33815;48.386;11.738;2022-07-22T02:23:48;26.85;;;23.25;;
48040;SDS011;33815;48.386;11.738;2022-07-22T02:26:13;27.55;;;23.58;;
48040;SDS011;33815;48.386;11.738;2022-07-22T02:28:38;28.27;;;22.63;;
48040;SDS011;33815;48.386;11.738;2022-07-22T02:31:04;25.45;;;22.42;;
48040;SDS011;33815;48.386;11.738;2022-07-22T02:33:29;27.50;;;24.55;;
48040;SDS011;33815;48.386;11.738;2022-07-22T02:35:55;25.77;;;22.45;;
48040;SDS011;33815;48.386;11.738;2022-07-22T02:38:20;27.30;;;24.35;;
48040;SDS011;33815;48.386;11.738;2022-07-22T02:40:46;24.45;;;21.80;;
48040;SDS011;33815;48.386;11.738;2022-07-22T02:43:11;24.35;;;21.73;;
48040;SDS011;33815;48.386;11.738;2022-07-22T02:45:36;26.77;;;21.98;;
48040;SDS011;33815;48.386;11.738;2022-07-22T02:48:01;25.20;;;21.27;;
48040;SDS011;33815;48.386;11.738;2022-07-22T02:50:27;26.85;;;23.55;;
48040;SDS011;33815;48.386;11.738;2022-07-22T02:52:52;38.73;;;24.43;;
48040;SDS011;33815;48.386;11.738;2022-07-22T02:55:18;30.17;;;25.65;;
48040;SDS011;33815;48.386;11.738;2022-07-22T02:57:43;30.02;;;25.70;;
48040;SDS011;33815;48.386;11.738;2022-07-22T03:00:10;26.42;;;23.27;;
48040;SDS011;33815;48.386;11.738;2022-07-22T03:02:37;25.40;;;22.80;;
48040;SDS011;33815;48.386;11.738;2022-07-22T03:05:04;27.27;;;23.90;;
48040;SDS011;33815;48.386;11.738;2022-07-22T03:07:30;28.73;;;25.45;;
48040;SDS011;33815;48.386;11.738;2022-07-22T03:09:55;31.75;;;25.25;;
48040;SDS011;33815;48.386;11.738;2022-07-22T03:12:21;29.38;;;25.15;;
48040;SDS011;33815;48.386;11.738;2022-07-22T03:14:46;32.63;;;25.73;;
48040;SDS011;33815;48.386;11.738;2022-07-22T03:17:11;32.22;;;25.27;;
48040;SDS011;33815;48.386;11.738;2022-07-22T03:19:36;26.23;;;21.85;;
48040;SDS011;33815;48.386;11.738;2022-07-22T03:22:02;26.15;;;23.05;;
48040;SDS011;33815;48.386;11.738;2022-07-22T03:24:27;25.90;;;22.85;;
48040;SDS011;33815;48.386;11.738;2022-07-22T03:26:52;26.50;;;23.50;;
48040;SDS011;33815;48.386;11.738;2022-07-22T03:29:18;26.77;;;22.90;;
48040;SDS011;33815;48.386;11.738;2022-07-22T03:31:43;29.10;;;24.33;;
48040;SDS011;33815;48.386;11.738;2022-07-22T03:34:08;26.02;;;21.67;;
48040;SDS011;33815;48.386;11.738;2022-07-22T03:36:33;23.80;;;21.13;;
48040;SDS011;33815;48.386;11.738;2022-07-22T03:38:59;24.92;;;22.13;;
48040;SDS011;33815;48.386;11.738;2022-07-22T03:41:24;26.83;;;23.75;;
48040;SDS011;33815;48.386;11.738;2022-07-22T03:43:49;25.70;;;23.02;;
48040;SDS011;33815;48.386;11.738;2022-07-22T03:46:15;31.40;;;24.95;;
48040;SDS011;33815;48.386;11.738;2022-07-22T03:48:40;25.63;;;22.73;;
48040;SDS011;33815;48.386;11.738;2022-07-22T03:51:05;28.52;;;23.42;;
48040;SDS011;33815;48.386;11.738;2022-07-22T03:53:31;31.77;;;24.20;;
48040;SDS011;33815;48.386;11.738;2022-07-22T03:55:57;27.00;;;23.90;;
48040;SDS011;33815;48.386;11.738;2022-07-22T03:58:23;30.20;;;24.80;;
48040;SDS011;33815;48.386;11.738;2022-07-22T04:00:49;42.65;;;26.20;;
48040;SDS011;33815;48.386;11.738;2022-07-22T04:03:14;31.33;;;24.10;;
48040;SDS011;33815;48.386;11.738;2022-07-22T04:05:40;27.23;;;23.43;;
48040;SDS011;33815;48.386;11.738;2022-07-22T04:08:05;26.43;;;23.43;;
48040;SDS011;33815;48.386;11.738;2022-07-22T04:10:30;28.23;;;23.55;;
48040;SDS011;33815;48.386;11.738;2022-07-22T04:12:56;29.00;;;23.83;;
48040;SDS011;33815;48.386;11.738;2022-07-22T04:15:21;25.57;;;22.97;;
48040;SDS011;33815;48.386;11.738;2022-07-22T04:17:46;27.02;;;23.40;;
48040;SDS011;33815;48.386;11.738;2022-07-22T04:20:12;25.52;;;22.25;;
48040;SDS011;33815;48.386;11.738;2022-07-22T04:22:38;26.73;;;24.00;;
48040;SDS011;33815;48.386;11.738;2022-07-22T04:25:03;27.50;;;22.57;;
48040;SDS011;33815;48.386;11.738;2022-07-22T04:27:29;23.00;;;20.58;;
48040;SDS011;33815;48.386;11.738;2022-07-22T04:29:54;26.13;;;23.42;;
48040;SDS011;33815;48.386;11.738;2022-07-22T04:32:20;27.45;;;23.27;;
48040;SDS011;33815;48.386;11.738;2022-07-22T04:34:46;26.00;;;23.13;;
48040;SDS011;33815;48.386;11.738;2022-07-22T04:37:11;26.60;;;22.40;;
48040;SDS011;33815;48.386;11.738;2022-07-22T04:39:36;25.60;;;22.70;;
48040;SDS011;33815;48.386;11.738;2022-07-22T04:42:02;25.40;;;22.03;;
48040;SDS011;33815;48.386;11.738;2022-07-22T04:44:27;26.00;;;23.25;;
48040;SDS011;33815;48.386;11.738;2022-07-22T04:46:52;29.27;;;25.27;;
48040;SDS011;33815;48.386;11.738;2022-07-22T04:49:18;27.83;;;24.83;;
48040;SDS011;33815;48.386;11.738;2022-07-22T04:51:43;24.05;;;21.45;;
48040;SDS011;33815;48.386;11.738;2022-07-22T04:54:08;23.02;;;20.15;;
48040;SDS011;33815;48.386;11.738;2022-07-22T04:56:34;23.13;;;20.73;;
48040;SDS011;33815;48.386;11.738;2022-07-22T04:58:59;21.63;;;19.47;;
48040;SDS011;33815;48.386;11.738;2022-07-22T05:01:24;26.30;;;21.95;;
48040;SDS011;33815;48.386;11.738;2022-07-22T05:03:49;22.73;;;20.35;;
48040;SDS011;33815;48.386;11.738;2022-07-22T05:06:16;28.85;;;25.75;;
48040;SDS011;33815;48.386;11.738;2022-07-22T05:08:42;29.47;;;26.37;;
48040;SDS011;33815;48.386;11.738;2022-07-22T05:11:07;30.05;;;26.88;;
48040;SDS011;33815;48.386;11.738;2022-07-22T05:13:32;30.58;;;27.27;;
48040;SDS011;33815;48.386;11.738;2022-07-22T05:16:01;28.75;;;25.77;;
48040;SDS011;33815;48.386;11.738;2022-07-22T05:18:27;29.85;;;26.73;;
48040;SDS011;33815;48.386;11.738;2022-07-22T05:20:52;31.20;;;27.70;;
48040;SDS011;33815;48.386;11.738;2022-07-22T05:23:18;29.47;;;26.30;;
48040;SDS011;33815;48.386;11.738;2022-07-22T05:25:43;28.47;;;25.43;;
48040;SDS011;33815;48.386;11.738;2022-07-22T05:28:08;29.60;;;26.10;;
48040;SDS011;33815;48.386;11.738;2022-07-22T05:30:33;27.93;;;25.03;;
48040;SDS011;33815;48.386;11.738;2022-07-22T05:32:59;29.92;;;26.73;;
48040;SDS011;33815;48.386;11.738;2022-07-22T05:35:24;27.20;;;24.43;;
48040;SDS011;33815;48.386;11.738;2022-07-22T05:37:49;29.80;;;24.77;;
48040;SDS011;33815;48.386;11.738;2022-07-22T05:40:14;28.27;;;25.17;;
48040;SDS011;33815;48.386;11.738;2022-07-22T05:42:40;28.52;;;25.55;;
48040;SDS011;33815;48.386;11.738;2022-07-22T05:45:05;24.83;;;22.25;;
48040;SDS011;33815;48.386;11.738;2022-07-22T05:47:31;29.05;;;25.52;;
48040;SDS011;33815;48.386;11.738;2022-07-22T05:49:56;28.15;;;25.35;;
48040;SDS011;33815;48.386;11.738;2022-07-22T05:52:21;28.80;;;25.73;;
48040;SDS011;33815;48.386;11.738;2022-07-22T05:54:47;27.58;;;24.77;;
48040;SDS011;33815;48.386;11.738;2022-07-22T05:57:12;26.73;;;24.03;;
48040;SDS011;33815;48.386;11.738;2022-07-22T05:59:37;29.63;;;24.97;;
48040;SDS011;33815;48.386;11.738;2022-07-22T06:02:03;28.88;;;24.77;;
48040;SDS011;33815;48.386;11.738;2022-07-22T06:04:28;32.15;;;25.95;;
48040;SDS011;33815;48.386;11.738;2022-07-22T06:06:54;31.42;;;27.95;;
48040;SDS011;33815;48.386;11.738;2022-07-22T06:09:19;27.67;;;24.75;;
48040;SDS011;33815;48.386;11.738;2022-07-22T06:11:45;29.92;;;26.58;;
48040;SDS011;33815;48.386;11.738;2022-07-22T06:14:10;29.60;;;24.95;;
48040;SDS011;33815;48.386;11.738;2022-07-22T06:16:35;36.73;;;28.10;;
48040;SDS011;33815;48.386;11.738;2022-07-22T06:19:01;27.60;;;24.70;;
48040;SDS011;33815;48.386;11.738;2022-07-22T06:21:27;28.50;;;25.67;;
48040;SDS011;33815;48.386;11.738;2022-07-22T06:23:52;30.73;;;25.75;;
48040;SDS011;33815;48.386;11.738;2022-07-22T06:26:17;33.47;;;25.27;;
48040;SDS011;33815;48.386;11.738;2022-07-22T06:28:43;30.63;;;26.17;;
48040;SDS011;33815;48.386;11.738;2022-07-22T06:31:08;31.40;;;24.17;;
48040;SDS011;33815;48.386;11.738;2022-07-22T06:33:33;29.13;;;24.73;;
48040;SDS011;33815;48.386;11.738;2022-07-22T06:35:59;25.27;;;22.58;;
48040;SDS011;33815;48.386;11.738;2022-07-22T06:38:25;28.50;;;23.95;;
48040;SDS011;33815;48.386;11.738;2022-07-22T06:40:50;25.52;;;23.02;;
48040;SDS011;33815;48.386;11.738;2022-07-22T06:43:15;27.92;;;24.90;;
48040;SDS011;33815;48.386;11.738;2022-07-22T06:45:41;30.15;;;23.30;;
48040;SDS011;33815;48.386;11.738;2022-07-22T06:48:06;29.83;;;22.53;;
48040;SDS011;33815;48.386;11.738;2022-07-22T06:50:31;24.13;;;21.63;;
48040;SDS011;33815;48.386;11.738;2022-07-22T06:52:57;27.67;;;22.83;;
48040;SDS011;33815;48.386;11.738;2022-07-22T06:55:22;27.90;;;22.07;;
48040;SDS011;33815;48.386;11.738;2022-07-22T06:57:48;22.65;;;19.35;;
48040;SDS011;33815;48.386;11.738;2022-07-22T07:00:13;22.33;;;19.90;;
48040;SDS011;33815;48.386;11.738;2022-07-22T07:02:39;21.63;;;18.20;;
48040;SDS011;33815;48.386;11.738;2022-07-22T07:05:04;26.20;;;20.13;;
48040;SDS011;33815;48.386;11.738;2022-07-22T07:07:30;21.45;;;19.20;;
48040;SDS011;33815;48.386;11.738;2022-07-22T07:09:55;21.42;;;18.70;;
48040;SDS011;33815;48.386;11.738;2022-07-22T07:12:20;19.97;;;17.40;;
48040;SDS011;33815;48.386;11.738;2022-07-22T07:14:46;21.30;;;19.10;;
48040;SDS011;33815;48.386;11.738;2022-07-22T07:17:11;18.70;;;16.70;;
48040;SDS011;33815;48.386;11.738;2022-07-22T07:19:36;18.83;;;16.90;;
48040;SDS011;33815;48.386;11.738;2022-07-22T07:22:02;17.83;;;15.50;;
48040;SDS011;33815;48.386;11.738;2022-07-22T07:24:27;19.33;;;16.90;;
48040;SDS011;33815;48.386;11.738;2022-07-22T07:26:52;17.80;;;14.63;;
48040;SDS011;33815;48.386;11.738;2022-07-22T07:29:18;15.38;;;13.65;;
48040;SDS011;33815;48.386;11.738;2022-07-22T07:31:43;15.80;;;14.20;;
48040;SDS011;33815;48.386;11.738;2022-07-22T07:34:08;14.50;;;13.05;;
48040;SDS011;33815;48.386;11.738;2022-07-22T07:36:33;13.53;;;11.80;;
48040;SDS011;33815;48.386;11.738;2022-07-22T07:38:59;14.73;;;12.63;;
48040;SDS011;33815;48.386;11.738;2022-07-22T07:41:24;15.20;;;13.32;;
48040;SDS011;33815;48.386;11.738;2022-07-22T07:43:49;14.20;;;12.63;;
48040;SDS011;33815;48.386;11.738;2022-07-22T07:46:15;13.13;;;11.75;;
48040;SDS011;33815;48.386;11.738;2022-07-22T07:48:40;14.27;;;12.52;;
48040;SDS011;33815;48.386;11.738;2022-07-22T07:51:05;15.13;;;12.90;;
48040;SDS011;33815;48.386;11.738;2022-07-22T07:53:31;16.25;;;11.13;;
48040;SDS011;33815;48.386;11.738;2022-07-22T07:55:56;12.18;;;9.65;;
48040;SDS011;33815;48.386;11.738;2022-07-22T07:58:21;12.80;;;10.43;;
48040;SDS011;33815;48.386;11.738;2022-07-22T08:00:47;12.13;;;10.90;;
48040;SDS011;33815;48.386;11.738;2022-07-22T08:03:12;11.18;;;9.15;;
48040;SDS011;33815;48.386;11.738;2022-07-22T08:05:38;14.43;;;9.88;;
48040;SDS011;33815;48.386;11.738;2022-07-22T08:08:04;13.52;;;9.90;;
48040;SDS011;33815;48.386;11.738;2022-07-22T08:10:30;10.02;;;9.02;;
48040;SDS011;33815;48.386;11.738;2022-07-22T08:12:55;12.33;;;8.70;;
48040;SDS011;33815;48.386;11.738;2022-07-22T08:15:22;15.18;;;9.05;;
48040;SDS011;33815;48.386;11.738;2022-07-22T08:17:48;11.02;;;7.97;;
48040;SDS011;33815;48.386;11.738;2022-07-22T08:20:14;14.05;;;9.10;;
48040;SDS011;33815;48.386;11.738;2022-07-22T08:22:39;11.02;;;9.00;;
48040;SDS011;33815;48.386;11.738;2022-07-22T08:25:04;11.32;;;7.78;;
48040;SDS011;33815;48.386;11.738;2022-07-22T08:27:30;9.35;;;8.40;;
48040;SDS011;33815;48.386;11.738;2022-07-22T08:29:56;10.60;;;8.13;;
48040;SDS011;33815;48.386;11.738;2022-07-22T08:32:21;10.38;;;8.07;;
48040;SDS011;33815;48.386;11.738;2022-07-22T08:34:47;10.10;;;8.98;;
48040;SDS011;33815;48.386;11.738;2022-07-22T08:37:12;10.18;;;9.07;;
48040;SDS011;33815;48.386;11.738;2022-07-22T08:39:37;10.35;;;8.40;;
48040;SDS011;33815;48.386;11.738;2022-07-22T08:42:03;9.45;;;7.88;;
48040;SDS011;33815;48.386;11.738;2022-07-22T08:44:29;9.55;;;8.52;;
48040;SDS011;33815;48.386;11.738;2022-07-22T08:46:58;8.48;;;7.70;;
48040;SDS011;33815;48.386;11.738;2022-07-22T08:49:25;9.23;;;8.27;;
48040;SDS011;33815;48.386;11.738;2022-07-22T08:51:50;12.75;;;9.05;;
48040;SDS011;33815;48.386;11.738;2022-07-22T08:54:15;11.93;;;7.80;;
48040;SDS011;33815;48.386;11.738;2022-07-22T08:56:41;11.23;;;8.27;;
48040;SDS011;33815;48.386;11.738;2022-07-22T08:59:07;11.05;;;8.30;;
48040;SDS011;33815;48.386;11.738;2022-07-22T09:01:32;11.73;;;7.55;;
48040;SDS011;33815;48.386;11.738;2022-07-22T09:03:58;8.73;;;7.67;;
48040;SDS011;33815;48.386;11.738;2022-07-22T09:06:24;12.38;;;8.10;;
48040;SDS011;33815;48.386;11.738;2022-07-22T09:08:59;11.48;;;7.93;;
48040;SDS011;33815;48.386;11.738;2022-07-22T09:11:30;9.68;;;7.35;;
48040;SDS011;33815;48.386;11.738;2022-07-22T09:13:56;9.48;;;6.93;;
48040;SDS011;33815;48.386;11.738;2022-07-22T09:16:43;10.50;;;6.32;;
48040;SDS011;33815;48.386;11.738;2022-07-22T09:19:12;8.18;;;7.35;;
48040;SDS011;33815;48.386;11.738;2022-07-22T09:21:39;10.43;;;7.13;;
48040;SDS011;33815;48.386;11.738;2022-07-22T09:24:06;16.63;;;7.50;;
48040;SDS011;33815;48.386;11.738;2022-07-22T09:26:36;8.90;;;6.60;;
48040;SDS011;33815;48.386;11.738;2022-07-22T09:29:04;10.25;;;7.10;;
48040;SDS011;33815;48.386;11.738;2022-07-22T09:31:32;7.78;;;6.40;;
48040;SDS011;33815;48.386;11.738;2022-07-22T09:33:59;7.53;;;6.18;;
48040;SDS011;33815;48.386;11.738;2022-07-22T09:36:25;7.05;;;6.45;;
48040;SDS011;33815;48.386;11.738;2022-07-22T09:38:51;8.48;;;6.15;;
48040;SDS011;33815;48.386;11.738;2022-07-22T09:41:17;10.70;;;6.55;;
48040;SDS011;33815;48.386;11.738;2022-07-22T09:43:42;6.38;;;5.75;;
48040;SDS011;33815;48.386;11.738;2022-07-22T09:46:08;7.18;;;6.47;;
48040;SDS011;33815;48.386;11.738;2022-07-22T09:48:34;9.43;;;6.35;;
48040;SDS011;33815;48.386;11.738;2022-07-22T09:51:01;7.45;;;6.40;;
48040;SDS011;33815;48.386;11.738;2022-07-22T09:53:27;10.27;;;6.55;;
48040;SDS011;33815;48.386;11.738;2022-07-22T09:55:54;5.93;;;5.43;;
48040;SDS011;33815;48.386;11.738;2022-07-22T09:58:24;6.43;;;5.68;;
48040;SDS011;33815;48.386;11.738;2022-07-22T10:00:51;7.88;;;5.75;;
48040;SDS011;33815;48.386;11.738;2022-07-22T10:03:27;8.30;;;6.55;;
48040;SDS011;33815;48.386;11.738;2022-07-22T10:05:54;9.63;;;6.25;;
48040;SDS011;33815;48.386;11.738;2022-07-22T10:08:21;6.50;;;5.90;;
48040;SDS011;33815;48.386;11.738;2022-07-22T10:10:48;9.25;;;6.00;;
48040;SDS011;33815;48.386;11.738;2022-07-22T10:13:14;10.23;;;6.82;;
48040;SDS011;33815;48.386;11.738;2022-07-22T10:15:42;8.57;;;6.35;;
48040;SDS011;33815;48.386;11.738;2022-07-22T10:18:09;10.13;;;6.28;;
48040;SDS011;33815;48.386;11.738;2022-07-22T10:20:39;6.93;;;6.28;;
48040;SDS011;33815;48.386;11.738;2022-07-22T10:23:05;9.88;;;5.57;;
48040;SDS011;33815;48.386;11.738;2022-07-22T10:25:47;7.95;;;5.97;;
48040;SDS011;33815;48.386;11.738;2022-07-22T10:28:31;6.55;;;5.72;;
48040;SDS011;33815;48.386;11.738;2022-07-22T10:33:39;6.63;;;5.53;;
48040;SDS011;33815;48.386;11.738;2022-07-22T10:36:05;5.60;;;4.88;;
48040;SDS011;33815;48.386;11.738;2022-07-22T10:38:31;5.28;;;4.88;;
48040;SDS011;33815;48.386;11.738;2022-07-22T10:41:00;5.97;;;5.47;;
48040;SDS011;33815;48.386;11.738;2022-07-22T10:43:28;6.72;;;5.53;;
48040;SDS011;33815;48.386;11.738;2022-07-22T10:46:06;6.05;;;4.97;;
48040;SDS011;33815;48.386;11.738;2022-07-22T10:56:30;4.80;;;4.20;;
48040;SDS011;33815;48.386;11.738;2022-07-22T11:01:39;7.10;;;4.30;;
48040;SDS011;33815;48.386;11.738;2022-07-22T11:04:13;6.20;;;4.93;;
48040;SDS011;33815;48.386;11.738;2022-07-22T11:06:43;5.88;;;4.25;;
48040;SDS011;33815;48.386;11.738;2022-07-22T11:09:10;5.47;;;4.40;;
48040;SDS011;33815;48.386;11.738;2022-07-22T11:11:44;5.03;;;4.53;;
48040;SDS011;33815;48.386;11.738;2022-07-22T11:16:39;4.50;;;4.10;;
48040;SDS011;33815;48.386;11.738;2022-07-22T11:19:05;4.90;;;4.35;;
48040;SDS011;33815;48.386;11.738;2022-07-22T11:21:31;5.87;;;4.20;;
48040;SDS011;33815;48.386;11.738;2022-07-22T11:23:59;5.85;;;4.57;;
48040;SDS011;33815;48.386;11.738;2022-07-22T11:26:34;9.27;;;6.57;;
48040;SDS011;33815;48.386;11.738;2022-07-22T11:31:29;5.43;;;4.40;;
48040;SDS011;33815;48.386;11.738;2022-07-22T11:34:10;9.00;;;4.38;;
48040;SDS011;33815;48.386;11.738;2022-07-22T11:36:39;5.63;;;3.80;;
48040;SDS011;33815;48.386;11.738;2022-07-22T11:39:06;5.97;;;3.88;;
48040;SDS011;33815;48.386;11.738;2022-07-22T11:41:33;3.90;;;3.60;;
48040;SDS011;33815;48.386;11.738;2022-07-22T11:43:59;6.18;;;4.35;;
48040;SDS011;33815;48.386;11.738;2022-07-22T11:46:25;4.93;;;4.13;;
48040;SDS011;33815;48.386;11.738;2022-07-22T11:48:52;5.35;;;4.65;;
48040;SDS011;33815;48.386;11.738;2022-07-22T11:51:18;4.75;;;4.35;;
48040;SDS011;33815;48.386;11.738;2022-07-22T11:53:44;7.28;;;5.18;;
48040;SDS011;33815;48.386;11.738;2022-07-22T11:56:10;5.20;;;4.50;;
48040;SDS011;33815;48.386;11.738;2022-07-22T11:58:47;6.03;;;4.68;;
48040;SDS011;33815;48.386;11.738;2022-07-22T12:01:20;14.48;;;5.70;;
48040;SDS011;33815;48.386;11.738;2022-07-22T12:03:49;5.00;;;4.20;;
48040;SDS011;33815;48.386;11.738;2022-07-22T12:06:19;5.03;;;4.50;;
48040;SDS011;33815;48.386;11.738;2022-07-22T12:08:51;6.53;;;5.00;;
48040;SDS011;33815;48.386;11.738;2022-07-22T12:11:19;6.95;;;4.80;;
48040;SDS011;33815;48.386;11.738;2022-07-22T12:13:48;7.15;;;4.80;;
48040;SDS011;33815;48.386;11.738;2022-07-22T12:16:26;5.68;;;5.15;;
48040;SDS011;33815;48.386;11.738;2022-07-22T12:18:54;5.63;;;5.15;;
48040;SDS011;33815;48.386;11.738;2022-07-22T12:21:25;7.32;;;4.55;;
48040;SDS011;33815;48.386;11.738;2022-07-22T12:23:56;8.85;;;6.22;;
48040;SDS011;33815;48.386;11.738;2022-07-22T12:26:48;7.00;;;5.30;;
48040;SDS011;33815;48.386;11.738;2022-07-22T12:31:52;9.27;;;5.50;;
48040;SDS011;33815;48.386;11.738;2022-07-22T12:39:39;5.55;;;4.97;;
48040;SDS011;33815;48.386;11.738;2022-07-22T12:42:17;6.43;;;5.18;;
48040;SDS011;33815;48.386;11.738;2022-07-22T12:44:50;5.38;;;4.90;;
48040;SDS011;33815;48.386;11.738;2022-07-22T12:50:29;7.20;;;5.15;;
48040;SDS011;33815;48.386;11.738;2022-07-22T12:53:03;5.75;;;4.90;;
48040;SDS011;33815;48.386;11.738;2022-07-22T12:56:12;5.80;;;4.85;;
48040;SDS011;33815;48.386;11.738;2022-07-22T12:58:20;5.30;;;4.90;;
48040;SDS011;33815;48.386;11.738;2022-07-22T13:00:49;7.85;;;4.88;;
48040;SDS011;33815;48.386;11.738;2022-07-22T13:03:15;5.93;;;4.53;;
48040;SDS011;33815;48.386;11.738;2022-07-22T13:05:44;4.75;;;4.35;;
48040;SDS011;33815;48.386;11.738;2022-07-22T13:08:10;5.70;;;4.82;;
48040;SDS011;33815;48.386;11.738;2022-07-22T13:10:36;4.80;;;4.33;;
48040;SDS011;33815;48.386;11.738;2022-07-22T13:13:01;6.00;;;4.57;;
48040;SDS011;33815;48.386;11.738;2022-07-22T13:15:27;8.10;;;4.88;;
48040;SDS011;33815;48.386;11.738;2022-07-22T13:17:52;6.38;;;4.63;;
48040;SDS011;33815;48.386;11.738;2022-07-22T13:20:18;4.90;;;4.50;;
48040;SDS011;33815;48.386;11.738;2022-07-22T13:22:44;5.70;;;5.00;;
48040;SDS011;33815;48.386;11.738;2022-07-22T13:25:10;6.47;;;5.30;;
48040;SDS011;33815;48.386;11.738;2022-07-22T13:27:36;5.90;;;5.30;;
48040;SDS011;33815;48.386;11.738;2022-07-22T13:30:01;6.57;;;4.50;;
48040;SDS011;33815;48.386;11.738;2022-07-22T13:32:27;4.78;;;4.38;;
48040;SDS011;33815;48.386;11.738;2022-07-22T13:34:52;5.20;;;4.80;;
48040;SDS011;33815;48.386;11.738;2022-07-22T13:37:17;5.17;;;4.10;;
48040;SDS011;33815;48.386;11.738;2022-07-22T13:39:43;4.63;;;4.33;;
48040;SDS011;33815;48.386;11.738;2022-07-22T13:42:10;5.57;;;5.07;;
48040;SDS011;33815;48.386;11.738;2022-07-22T13:44:37;5.10;;;4.55;;
48040;SDS011;33815;48.386;11.738;2022-07-22T13:47:02;5.72;;;4.20;;
48040;SDS011;33815;48.386;11.738;2022-07-22T13:49:27;8.43;;;4.63;;
48040;SDS011;33815;48.386;11.738;2022-07-22T13:51:53;7.47;;;5.83;;
48040;SDS011;33815;48.386;11.738;2022-07-22T13:54:18;6.57;;;4.90;;
48040;SDS011;33815;48.386;11.738;2022-07-22T13:56:44;6.70;;;4.53;;
48040;SDS011;33815;48.386;11.738;2022-07-22T13:59:13;7.28;;;5.13;;
48040;SDS011;33815;48.386;11.738;2022-07-22T14:01:39;6.35;;;4.97;;
48040;SDS011;33815;48.386;11.738;2022-07-22T14:04:04;8.93;;;4.82;;
48040;SDS011;33815;48.386;11.738;2022-07-22T14:06:31;9.27;;;4.60;;
48040;SDS011;33815;48.386;11.738;2022-07-22T14:08:56;4.63;;;4.22;;
48040;SDS011;33815;48.386;11.738;2022-07-22T14:11:22;4.53;;;4.10;;
48040;SDS011;33815;48.386;11.738;2022-07-22T14:13:47;6.63;;;4.63;;
48040;SDS011;33815;48.386;11.738;2022-07-22T14:16:12;7.20;;;4.90;;
48040;SDS011;33815;48.386;11.738;2022-07-22T14:18:56;7.28;;;4.60;;
48040;SDS011;33815;48.386;11.738;2022-07-22T14:21:21;5.20;;;4.50;;
48040;SDS011;33815;48.386;11.738;2022-07-22T14:23:47;5.27;;;4.57;;
48040;SDS011;33815;48.386;11.738;2022-07-22T14:26:12;7.27;;;4.40;;
48040;SDS011;33815;48.386;11.738;2022-07-22T14:28:37;6.67;;;5.40;;
48040;SDS011;33815;48.386;11.738;2022-07-22T14:31:02;6.50;;;5.10;;
48040;SDS011;33815;48.386;11.738;2022-07-22T14:33:28;5.10;;;4.60;;
48040;SDS011;33815;48.386;11.738;2022-07-22T14:35:53;4.90;;;4.50;;
48040;SDS011;33815;48.386;11.738;2022-07-22T14:38:19;5.80;;;5.27;;
48040;SDS011;33815;48.386;11.738;2022-07-22T14:40:44;5.22;;;4.82;;
48040;SDS011;33815;48.386;11.738;2022-07-22T14:43:10;7.95;;;4.93;;